METAR Data
IDs: Format: Raw Decoded Include TAF

Data at: 0502 UTC 20 Sep 2020

Region: TOP
KATL 200452Z 09012KT 10SM FEW040 OVC250 17/11 A3025 RMK AO2 SLP238 T01670111 402170167

KBOS 200454Z 02012KT 10SM CLR 09/M02 A3041 RMK AO2 SLP298 T00941022 401560078

KBWI 200454Z 29003KT 10SM CLR 07/06 A3037 RMK AO2 SLP284 T00720056 401940072

KCLE 200451Z 11007KT 10SM CLR 12/04 A3039

KCLT 200452Z 04010KT 10SM BKN250 12/06 A3032 RMK AO2 SLP263 T01220056 402000122

KCVG 200452Z 07006KT 10SM CLR 12/03 A3033 RMK AO2 SLP266 T01170033 402060083

KDCA 200452Z 34005KT 10SM FEW250 12/06 A3038 RMK AO2 SLP288 T01170056 401940094

KDEN 200453Z 21004KT 10SM FEW150 21/01 A3004 RMK AO2 SLP086 T02060011

KDFW 200453Z 06005KT 10SM CLR 19/13 A3013 RMK AO2 SLP196 T01890133

KDTW 200453Z 00000KT 9SM CLR 09/04 A3041 RMK AO2 SLP299 T00890044 401780033

KEWR 200451Z 02007KT 10SM CLR 10/01 A3039 RMK AO2 SLP291 T01000006 401830089 $

KFLL 200453Z 30004KT 10SM FEW085 SCT250 28/25 A2990 RMK AO2 SLP126 T02780250 403560267

KIAD 200452Z 31003KT 10SM CLR 06/04 A3038 RMK AO2 SLP287 T00610039 401890061 $

KIAH 200453Z 02010KT 10SM SCT060 23/14 A3003 RMK AO2 SLP167 T02330144

KJFK 200451Z 36007KT 10SM CLR 12/03 A3039 RMK AO2 SLP290 T01170028 401890094 $

KLAS 200456Z 22006KT 10SM CLR 29/M02 A2984 RMK AO2 SLP077 HZ AND FU VC ALQDS T02941022

KLAX 200453Z 32004KT 10SM CLR 19/16 A2983 RMK AO2 SLP100 T01890161 $

KLGA 200451Z 03012KT 10SM CLR 14/M01 A3039 RMK AO2 SLP289 T01391006 401830106 $

KMCO 200453Z 01011KT 7SM -RA FEW009 BKN032 OVC090 24/24 A2996 RMK AO2 SLP143 P0007 T02440239 403280233

KMDW 200453Z 00000KT 10SM CLR 12/05 A3034 RMK AO2 SLP273 T01220050

KMEM 200454Z 08006KT 10SM SCT040 19/14 A3019 RMK AO2 SLP219 T01940139

KMIA 200453Z 30003KT 10SM FEW030 FEW070 SCT085 28/26 A2991 RMK AO2 SLP129 T02780256 403330261

KMSP 200453Z 15008KT 10SM FEW250 14/09 A3018 RMK AO2 SLP221 T01440089

KORD 200451Z 00000KT 10SM CLR 13/06 A3034 RMK AO2 SLP274 T01280056 $

KPDX 200453Z 32004KT 10SM FEW010 BKN030 BKN090 17/15 A3012 RMK AO2 SLP197 T01720150

KPHL 200454Z 36005KT 10SM CLR 10/03 A3038 RMK AO2 SLP288 T01000033 401890089 $

KPHX 200451Z 00000KT 10SM CLR 32/07 A2978 RMK AO2 SLP063 T03220067

KPIT 200451Z 00000KT 10SM CLR 06/03 A3037 RMK AO2 SLP295 T00610028 401720039

KSAN 200451Z 33004KT 10SM CLR 21/18 A2986 RMK AO2 SLP112 T02110178

KSEA 200453Z 11006KT 10SM -RA FEW006 BKN011 OVC020 16/15 A3010 RMK AO2 RAB0355 SLP199 P0000 T01610150

KSFO 200456Z 32011KT 10SM FEW005 18/14 A2991 RMK AO2 SLP127 T01780139

KSLC 200454Z 36004KT 10SM CLR 13/09 A3009 RMK AO2 SLP158 T01330089

KSTL 200451Z 12005KT 10SM CLR 14/06 A3029 RMK AO2 SLP255 T01390061

KTPA 200453Z 05009G15KT 10SM FEW017 BKN080 27/21 A2998 RMK AO2 SLP150 T02670211 403390239